Time;durP1;ratioP1;P1;durP2;ratioP2;P2;SDS_P1;SDS_P2;PMS_P1;PMS_P2;Temp;Humidity;BMP_temperature;BMP_pressure;BME280_temperature;BME280_humidity;BME280_pressure;Samples;Min_cycle;Max_cycle;Signal;HPM_P1;HPM_P2
2023/08/01 00:01:24;;;;;;;;;6.25;3.00;;;;;22.44;48.12;98683.38;4970770;28;45418;-65
2023/08/01 00:03:49;;;;;;;;;5.00;4.50;;;;;22.41;48.26;98677.44;4968924;28;45542;-64
2023/08/01 00:06:15;;;;;;;;;5.25;4.50;;;;;22.38;48.42;98683.09;4969071;28;46069;-64
2023/08/01 00:08:40;;;;;;;;;5.50;5.00;;;;;22.35;48.36;98675.31;4967556;28;45464;-64
2023/08/01 00:11:06;;;;;;;;;3.00;3.00;;;;;22.32;48.15;98665.72;4971267;28;45818;-65
2023/08/01 00:13:31;;;;;;;;;4.75;4.75;;;;;22.31;48.48;98666.69;4969825;28;45430;-64
2023/08/01 00:15:57;;;;;;;;;4.25;4.25;;;;;22.33;48.62;98670.09;4971774;28;45501;-65
2023/08/01 00:18:22;;;;;;;;;3.25;3.00;;;;;22.33;48.70;98664.72;4968614;28;45544;-65
2023/08/01 00:20:47;;;;;;;;;4.25;4.25;;;;;22.30;48.40;98662.31;4972099;28;45972;-65
2023/08/01 00:23:13;;;;;;;;;6.50;5.00;;;;;22.25;48.45;98662.78;4970339;28;45578;-64
2023/08/01 00:25:39;;;;;;;;;4.75;3.25;;;;;22.22;48.88;98665.75;4957050;28;45763;-64
2023/08/01 00:28:04;;;;;;;;;5.75;5.00;;;;;22.19;49.23;98662.50;4970222;28;45559;-64
2023/08/01 00:30:29;;;;;;;;;4.00;4.00;;;;;22.18;49.03;98655.44;4971883;28;45722;-64
2023/08/01 00:32:55;;;;;;;;;4.00;4.00;;;;;22.17;49.34;98643.00;4970020;28;45486;-64
2023/08/01 00:35:20;;;;;;;;;5.25;5.00;;;;;22.17;49.97;98643.84;4970141;28;46385;-64
2023/08/01 00:37:46;;;;;;;;;5.50;5.50;;;;;22.19;49.51;98638.34;4968909;28;45682;-65
2023/08/01 00:40:12;;;;;;;;;5.00;5.00;;;;;22.21;48.80;98655.16;4967579;28;45808;-64
2023/08/01 00:42:38;;;;;;;;;3.00;3.00;;;;;22.19;49.39;98655.31;4969012;28;45511;-64
2023/08/01 00:45:04;;;;;;;;;3.50;2.75;;;;;22.15;49.56;98664.63;4970657;28;46199;-64
2023/08/01 00:47:30;;;;;;;;;5.00;5.00;;;;;22.11;49.64;98659.72;4969760;28;45938;-64
2023/08/01 00:49:55;;;;;;;;;5.00;5.00;;;;;22.07;49.67;98653.78;4968891;28;45779;-64
2023/08/01 00:52:22;;;;;;;;;5.00;4.50;;;;;22.05;49.20;98636.97;4969687;28;45552;-64
2023/08/01 00:54:48;;;;;;;;;4.00;4.00;;;;;22.03;49.82;98635.44;4969069;28;46607;-64
2023/08/01 00:57:13;;;;;;;;;5.00;5.00;;;;;22.02;49.76;98647.16;4970980;28;45546;-64
2023/08/01 00:59:39;;;;;;;;;5.25;4.25;;;;;22.02;49.94;98644.47;4968159;28;45520;-64
2023/08/01 01:02:05;;;;;;;;;7.00;6.00;;;;;21.97;50.03;98642.19;4971009;28;45631;-64
2023/08/01 01:04:30;;;;;;;;;5.00;5.00;;;;;21.89;50.74;98650.97;4964388;28;45909;-64
2023/08/01 01:07:05;;;;;;;;;6.00;3.25;;;;;21.83;50.89;98639.94;4966650;28;45539;-64
2023/08/01 01:09:33;;;;;;;;;7.40;5.40;;;;;21.79;51.25;98644.75;4966727;28;45775;-64
2023/08/01 01:11:59;;;;;;;;;5.00;4.00;;;;;21.78;51.29;98637.72;4970541;28;45566;-64
2023/08/01 01:14:28;;;;;;;;;4.20;4.20;;;;;21.74;51.19;98635.47;4967209;28;45537;-64
2023/08/01 01:16:55;;;;;;;;;4.00;4.00;;;;;21.69;51.11;98632.34;4970592;28;45565;-64
2023/08/01 01:19:20;;;;;;;;;5.20;4.20;;;;;21.65;51.34;98625.56;4967633;28;45513;-64
2023/08/01 01:21:48;;;;;;;;;6.00;6.00;;;;;21.63;51.67;98622.19;4968490;28;45621;-64
2023/08/01 01:24:15;;;;;;;;;6.80;5.60;;;;;21.58;51.64;98623.47;4964735;28;45435;-64
2023/08/01 01:26:42;;;;;;;;;5.40;5.00;;;;;21.55;51.77;98617.53;4969651;28;45712;-64
2023/08/01 01:29:09;;;;;;;;;7.00;6.00;;;;;21.54;52.17;98613.16;4967982;28;45694;-64
2023/08/01 01:31:36;;;;;;;;;7.50;5.75;;;;;21.52;51.57;98618.66;4970637;28;45525;-73
2023/08/01 01:34:02;;;;;;;;;7.00;5.20;;;;;21.54;51.85;98610.50;4962212;28;45669;-60
2023/08/01 01:36:27;;;;;;;;;6.50;4.75;;;;;21.58;51.93;98611.91;4971512;28;45548;-61
2023/08/01 01:38:52;;;;;;;;;4.75;4.75;;;;;21.60;51.85;98607.25;4962179;28;45499;-61
2023/08/01 01:41:18;;;;;;;;;5.00;5.00;;;;;21.57;51.82;98608.38;4970071;28;45431;-60
2023/08/01 01:43:44;;;;;;;;;6.00;4.25;;;;;21.55;52.40;98601.44;4968530;28;45671;-61
2023/08/01 01:46:09;;;;;;;;;5.40;4.00;;;;;21.53;52.48;98604.28;4971839;28;45456;-61
2023/08/01 01:48:35;;;;;;;;;5.25;4.25;;;;;21.52;51.99;98599.91;4952838;28;45598;-61
2023/08/01 01:51:00;;;;;;;;;4.50;4.50;;;;;21.53;52.23;98598.06;4961168;28;45581;-61
2023/08/01 01:53:25;;;;;;;;;6.00;6.00;;;;;21.52;51.92;98604.41;4961969;28;46529;-61
2023/08/01 01:55:52;;;;;;;;;5.00;5.00;;;;;21.50;51.62;98598.34;4967308;28;45823;-61
2023/08/01 01:58:17;;;;;;;;;6.40;6.00;;;;;21.45;51.91;98593.41;4966404;28;45513;-61
2023/08/01 02:00:42;;;;;;;;;4.25;4.25;;;;;21.43;52.16;98597.25;4966105;28;45506;-61
2023/08/01 02:03:10;;;;;;;;;4.25;3.75;;;;;21.35;52.80;98597.94;4965222;28;46370;-61
2023/08/01 02:05:36;;;;;;;;;4.00;4.00;;;;;21.28;52.33;98595.97;4964500;28;45825;-61
2023/08/01 02:08:01;;;;;;;;;5.00;5.00;;;;;21.20;52.71;98592.16;4961506;28;45568;-61
2023/08/01 02:10:27;;;;;;;;;4.25;4.25;;;;;21.14;52.96;98589.16;4965559;28;45581;-61
2023/08/01 02:12:52;;;;;;;;;3.75;3.75;;;;;21.07;52.92;98591.56;4963114;28;45548;-61
2023/08/01 02:15:17;;;;;;;;;3.00;3.00;;;;;20.99;53.08;98596.75;4966839;28;45490;-61
2023/08/01 02:17:43;;;;;;;;;3.00;3.00;;;;;20.92;53.78;98597.47;4966180;28;45806;-61
2023/08/01 02:20:08;;;;;;;;;4.50;4.50;;;;;20.86;53.58;98599.72;4966299;28;45494;-61
2023/08/01 02:22:34;;;;;;;;;6.50;4.25;;;;;20.85;53.82;98605.22;4965777;28;45494;-61
2023/08/01 02:24:59;;;;;;;;;5.75;5.25;;;;;20.82;53.55;98600.13;4966897;28;45682;-61
2023/08/01 02:27:25;;;;;;;;;8.75;5.00;;;;;20.78;53.71;98601.41;4964231;28;45627;-61
2023/08/01 02:29:50;;;;;;;;;5.25;5.00;;;;;20.74;54.59;98613.38;4966200;28;45598;-61
2023/08/01 02:32:16;;;;;;;;;7.00;4.75;;;;;20.69;54.61;98611.09;4965483;28;45816;-61
2023/08/01 02:34:42;;;;;;;;;5.75;4.25;;;;;20.68;54.25;98611.25;4966049;28;45659;-61
2023/08/01 02:37:07;;;;;;;;;9.25;5.25;;;;;20.67;54.32;98620.25;4966360;28;45683;-61
2023/08/01 02:39:32;;;;;;;;;4.75;4.00;;;;;20.65;54.29;98617.72;4966078;28;45629;-61
2023/08/01 02:41:58;;;;;;;;;7.25;5.75;;;;;20.69;54.26;98610.25;4966096;28;45477;-61
2023/08/01 02:44:23;;;;;;;;;5.50;5.00;;;;;20.73;53.67;98604.50;4964761;28;45720;-61
2023/08/01 02:46:48;;;;;;;;;5.75;4.50;;;;;20.77;54.34;98615.78;4962109;28;45559;-61
2023/08/01 02:49:14;;;;;;;;;6.75;6.25;;;;;20.77;54.53;98627.34;4961664;28;45580;-61
2023/08/01 02:51:39;;;;;;;;;8.50;4.25;;;;;20.77;54.36;98631.88;4962606;28;45954;-61
2023/08/01 02:54:04;;;;;;;;;5.00;5.00;;;;;20.82;54.54;98627.78;4963583;28;45595;-60
2023/08/01 02:56:30;;;;;;;;;6.25;6.25;;;;;20.87;54.65;98628.22;4963481;28;45839;-61
2023/08/01 02:58:55;;;;;;;;;6.25;5.75;;;;;20.90;54.29;98624.41;4964622;28;45636;-60
2023/08/01 03:01:21;;;;;;;;;7.75;4.75;;;;;20.95;54.12;98622.13;4966025;28;46314;-61
2023/08/01 03:03:46;;;;;;;;;6.50;5.75;;;;;20.99;54.30;98617.34;4968194;28;45469;-61
2023/08/01 03:06:12;;;;;;;;;5.75;4.75;;;;;21.02;54.10;98611.72;4969145;28;45704;-61
2023/08/01 03:08:38;;;;;;;;;5.75;5.75;;;;;21.05;54.05;98622.16;4967350;28;45650;-61
2023/08/01 03:11:03;;;;;;;;;5.00;5.00;;;;;21.06;54.05;98624.72;4968334;28;46186;-62
2023/08/01 03:13:29;;;;;;;;;5.75;5.75;;;;;21.07;53.44;98625.56;4968180;28;45461;-61
2023/08/01 03:15:54;;;;;;;;;4.00;4.00;;;;;21.09;54.22;98628.94;4968121;28;45597;-61
2023/08/01 03:18:19;;;;;;;;;6.25;4.00;;;;;21.09;54.15;98629.81;4967212;28;45494;-61
2023/08/01 03:20:45;;;;;;;;;7.25;5.00;;;;;21.10;53.62;98622.59;4968321;28;46508;-62
2023/08/01 03:23:10;;;;;;;;;4.75;4.75;;;;;21.11;53.93;98622.47;4966735;28;45619;-61
2023/08/01 03:25:35;;;;;;;;;4.25;4.00;;;;;21.12;53.53;98624.13;4968350;28;46024;-61
2023/08/01 03:28:01;;;;;;;;;4.25;4.25;;;;;21.12;53.79;98621.44;4966720;28;45548;-62
2023/08/01 03:30:26;;;;;;;;;4.50;4.50;;;;;21.14;53.42;98629.34;4967578;28;46098;-61
2023/08/01 03:32:52;;;;;;;;;3.75;3.25;;;;;21.12;53.45;98610.72;4967610;28;45723;-61
2023/08/01 03:35:17;;;;;;;;;6.00;5.00;;;;;21.12;53.83;98605.38;4968745;28;45601;-61
2023/08/01 03:37:43;;;;;;;;;4.75;4.75;;;;;21.11;53.56;98598.34;4967642;28;45723;-61
2023/08/01 03:40:08;;;;;;;;;3.00;3.00;;;;;21.12;53.84;98589.28;4968547;28;46064;-61
2023/08/01 03:42:34;;;;;;;;;4.50;4.00;;;;;21.15;53.26;98593.53;4968290;28;45819;-59
2023/08/01 03:45:00;;;;;;;;;6.00;5.00;;;;;21.15;53.60;98599.72;4968441;28;45442;-61
2023/08/01 03:47:26;;;;;;;;;3.25;3.25;;;;;21.15;53.30;98601.56;4967431;28;45434;-61
2023/08/01 03:49:51;;;;;;;;;6.00;4.25;;;;;21.12;53.13;98597.31;4966000;28;45529;-61
2023/08/01 03:52:16;;;;;;;;;6.00;5.00;;;;;21.10;53.14;98601.16;4967565;28;45701;-61
2023/08/01 03:54:42;;;;;;;;;6.75;5.00;;;;;21.06;53.40;98586.34;4968252;28;45500;-61
2023/08/01 03:57:07;;;;;;;;;5.00;5.00;;;;;20.99;53.73;98577.16;4967705;28;45490;-61
2023/08/01 03:59:32;;;;;;;;;5.25;5.25;;;;;20.93;53.78;98575.06;4967688;28;45440;-62
2023/08/01 04:01:58;;;;;;;;;5.50;5.50;;;;;20.88;53.74;98568.28;4967433;28;45724;-62
2023/08/01 04:04:23;;;;;;;;;6.00;5.00;;;;;20.86;53.56;98578.28;4967619;28;45624;-61
2023/08/01 04:06:49;;;;;;;;;7.00;6.50;;;;;20.81;53.89;98574.31;4966771;28;45521;-61
2023/08/01 04:09:14;;;;;;;;;7.00;7.00;;;;;20.78;54.48;98578.13;4967019;28;46455;-61
2023/08/01 04:11:39;;;;;;;;;5.00;5.00;;;;;20.71;54.14;98590.38;4967087;28;45439;-61
2023/08/01 04:14:05;;;;;;;;;5.00;4.25;;;;;20.66;55.01;98583.75;4966650;28;45454;-61
2023/08/01 04:16:30;;;;;;;;;4.00;4.00;;;;;20.60;54.70;98571.78;4968006;28;45665;-61
2023/08/01 04:18:56;;;;;;;;;4.00;4.00;;;;;20.57;55.09;98576.53;4966762;28;45827;-61
2023/08/01 04:21:21;;;;;;;;;5.00;5.00;;;;;20.55;54.94;98569.50;4967853;28;45614;-61
2023/08/01 04:23:46;;;;;;;;;5.75;4.25;;;;;20.58;55.18;98578.25;4966699;28;45554;-61
2023/08/01 04:26:12;;;;;;;;;5.75;5.25;;;;;20.60;55.40;98577.13;4966782;28;45691;-61
2023/08/01 04:28:37;;;;;;;;;5.00;4.25;;;;;20.63;55.90;98578.66;4966643;28;46019;-61
2023/08/01 04:31:03;;;;;;;;;7.00;5.25;;;;;20.65;55.93;98566.81;4967015;28;45531;-61
2023/08/01 04:33:28;;;;;;;;;3.75;3.75;;;;;20.69;55.80;98567.41;4966416;28;45843;-60
2023/08/01 04:35:53;;;;;;;;;5.25;5.00;;;;;20.70;56.28;98571.78;4966222;28;45546;-61
2023/08/01 04:38:19;;;;;;;;;8.25;6.00;;;;;20.66;56.31;98565.84;4964553;28;46151;-62
2023/08/01 04:40:44;;;;;;;;;4.00;3.25;;;;;20.65;56.73;98584.72;4967049;28;45608;-61
2023/08/01 04:43:12;;;;;;;;;7.00;6.25;;;;;20.60;57.04;98576.28;4966206;28;45591;-61
2023/08/01 04:45:37;;;;;;;;;7.00;5.75;;;;;20.55;57.21;98587.38;4966434;28;46251;-61
2023/08/01 04:48:03;;;;;;;;;8.75;7.50;;;;;20.53;57.18;98587.53;4965624;28;45682;-61
2023/08/01 04:50:28;;;;;;;;;9.25;7.25;;;;;20.50;57.74;98590.47;4965566;28;45558;-61
2023/08/01 04:52:53;;;;;;;;;5.75;4.00;;;;;20.48;57.70;98595.13;4964673;28;45584;-62
2023/08/01 04:55:19;;;;;;;;;6.00;6.00;;;;;20.47;57.91;98590.75;4967178;28;45487;-62
2023/08/01 04:57:44;;;;;;;;;7.25;7.25;;;;;20.48;57.20;98589.75;4966208;28;46419;-61
2023/08/01 05:00:11;;;;;;;;;7.00;5.00;;;;;20.45;57.88;98594.53;4966851;28;45466;-61
2023/08/01 05:02:36;;;;;;;;;6.00;5.00;;;;;20.42;57.76;98598.34;4965526;28;45589;-61
2023/08/01 05:05:01;;;;;;;;;7.50;6.50;;;;;20.43;58.14;98589.34;4965194;28;45556;-61
2023/08/01 05:07:27;;;;;;;;;5.75;5.25;;;;;20.44;57.32;98596.38;4965391;28;45825;-61
2023/08/01 05:09:52;;;;;;;;;4.75;4.50;;;;;20.46;57.99;98597.06;4966144;28;45582;-61
2023/08/01 05:12:18;;;;;;;;;7.25;7.25;;;;;20.51;57.94;98594.00;4966283;28;45763;-61
2023/08/01 05:14:43;;;;;;;;;9.00;8.75;;;;;20.55;57.91;98590.91;4965497;28;45680;-61
2023/08/01 05:17:09;;;;;;;;;6.00;6.00;;;;;20.61;57.39;98588.69;4964931;28;45738;-61
2023/08/01 05:19:34;;;;;;;;;6.00;6.00;;;;;20.67;57.04;98590.78;4964971;28;45458;-61
2023/08/01 05:21:59;;;;;;;;;5.25;4.75;;;;;20.69;56.83;98587.00;4964451;28;45588;-61
2023/08/01 05:24:25;;;;;;;;;4.25;4.25;;;;;20.71;57.07;98587.72;4963742;28;45514;-61
2023/08/01 05:26:50;;;;;;;;;6.50;6.50;;;;;20.75;57.10;98585.59;4961120;28;45524;-61
2023/08/01 05:29:16;;;;;;;;;5.25;5.25;;;;;20.81;57.01;98580.53;4964488;28;45463;-61
2023/08/01 05:31:41;;;;;;;;;6.75;6.00;;;;;20.88;56.71;98580.81;4964905;28;45628;-61
2023/08/01 05:34:06;;;;;;;;;5.25;5.25;;;;;20.93;56.00;98577.72;4963669;28;45536;-61
2023/08/01 05:36:32;;;;;;;;;5.00;4.75;;;;;20.95;55.50;98575.75;4963995;28;46452;-61
2023/08/01 05:38:57;;;;;;;;;5.25;4.50;;;;;20.98;55.21;98570.94;4964061;28;45505;-61
2023/08/01 05:41:23;;;;;;;;;8.25;6.50;;;;;21.01;55.12;98570.66;4965211;28;45924;-61
2023/08/01 05:43:49;;;;;;;;;5.00;5.00;;;;;21.04;55.17;98583.81;4964983;28;45701;-62
2023/08/01 05:46:24;;;;;;;;;7.00;6.40;;;;;21.04;55.21;98585.63;5080465;27;45620;-61
2023/08/01 05:48:49;;;;;;;;;5.25;5.25;;;;;21.03;54.83;98571.38;5064186;27;45886;-61
2023/08/01 05:51:15;;;;;;;;;6.50;6.25;;;;;21.02;55.04;98575.03;5079444;27;45464;-62
2023/08/01 05:53:40;;;;;;;;;6.50;5.00;;;;;20.97;55.00;98595.19;5065393;27;45613;-63
2023/08/01 05:56:06;;;;;;;;;6.25;5.75;;;;;20.89;54.59;98594.09;5066765;27;45629;-63
2023/08/01 05:58:31;;;;;;;;;9.25;5.25;;;;;20.86;55.19;98596.19;5063999;27;45539;-62
2023/08/01 06:00:57;;;;;;;;;6.00;5.00;;;;;20.88;54.95;98600.44;5063907;27;45527;-62
2023/08/01 06:03:22;;;;;;;;;7.75;5.75;;;;;20.88;54.85;98616.50;5064055;27;45579;-63
2023/08/01 06:05:48;;;;;;;;;7.25;6.00;;;;;20.85;55.08;98607.88;5061362;27;46160;-63
2023/08/01 06:08:15;;;;;;;;;6.00;5.00;;;;;20.86;55.06;98610.44;5062215;27;45459;-65
2023/08/01 06:10:41;;;;;;;;;5.80;5.80;;;;;20.93;55.02;98613.41;5077567;27;45505;-63
2023/08/01 06:13:06;;;;;;;;;5.50;3.75;;;;;20.98;55.19;98608.47;5062904;27;45448;-63
2023/08/01 06:15:32;;;;;;;;;6.00;6.00;;;;;21.00;55.24;98613.69;5063295;27;46435;-62
2023/08/01 06:17:57;;;;;;;;;7.75;5.50;;;;;21.01;55.83;98613.56;5063322;27;45729;-63
2023/08/01 06:20:23;;;;;;;;;3.75;3.75;;;;;21.01;56.10;98608.19;5063819;27;45872;-63
2023/08/01 06:22:48;;;;;;;;;5.50;5.25;;;;;21.03;55.79;98606.22;5077982;27;45646;-62
2023/08/01 06:25:13;;;;;;;;;7.75;6.00;;;;;21.02;56.25;98593.81;5063138;27;46450;-62
2023/08/01 06:27:39;;;;;;;;;7.25;6.25;;;;;21.05;56.91;98609.63;5064146;27;45597;-62
2023/08/01 06:30:05;;;;;;;;;6.50;6.00;;;;;21.01;56.72;98613.56;5060630;27;45513;-62
2023/08/01 06:32:31;;;;;;;;;5.00;5.00;;;;;21.00;56.63;98616.38;5077868;27;45643;-62
2023/08/01 06:34:56;;;;;;;;;6.00;6.00;;;;;21.04;56.71;98610.59;5065755;27;45494;-62
2023/08/01 06:37:21;;;;;;;;;6.00;6.00;;;;;21.13;56.61;98622.31;5063052;27;45731;-62
2023/08/01 06:39:47;;;;;;;;;9.50;9.00;;;;;21.27;56.71;98613.06;5064374;27;46061;-62
2023/08/01 06:42:12;;;;;;;;;9.00;7.00;;;;;21.40;55.99;98616.28;5063781;27;45494;-62
2023/08/01 06:44:38;;;;;;;;;7.25;6.50;;;;;21.53;55.85;98615.00;5062711;27;47044;-62
2023/08/01 06:47:04;;;;;;;;;7.25;7.25;;;;;21.64;55.33;98627.41;5077951;27;45826;-62
2023/08/01 06:49:29;;;;;;;;;7.25;7.00;;;;;21.72;55.55;98624.03;5063549;27;45758;-62
2023/08/01 06:51:54;;;;;;;;;7.25;5.00;;;;;21.80;54.86;98626.81;5062054;27;45715;-63
2023/08/01 06:54:20;;;;;;;;;7.00;6.00;;;;;21.84;54.40;98626.38;5060267;27;46092;-62
2023/08/01 06:56:47;;;;;;;;;9.25;8.00;;;;;21.86;55.12;98619.03;5053227;27;45581;-62
2023/08/01 06:59:16;;;;;;;;;6.20;5.40;;;;;21.95;54.35;98623.53;5051102;28;45624;-62
2023/08/01 07:01:43;;;;;;;;;7.00;7.00;;;;;22.06;54.31;98625.25;5047668;28;45568;-62
2023/08/01 07:04:13;;;;;;;;;8.60;5.20;;;;;22.17;53.89;98632.25;5048002;28;46237;-62
2023/08/01 07:06:39;;;;;;;;;8.60;5.80;;;;;22.22;53.61;98619.25;5049678;28;45527;-62
2023/08/01 07:09:05;;;;;;;;;5.40;5.40;;;;;22.27;53.57;98623.19;5047779;28;45499;-62
2023/08/01 07:11:30;;;;;;;;;7.50;7.00;;;;;22.29;53.82;98620.34;5057202;27;45498;-62
2023/08/01 07:13:56;;;;;;;;;6.00;6.00;;;;;22.29;54.08;98628.41;5040720;27;45636;-63
2023/08/01 07:16:21;;;;;;;;;6.00;5.00;;;;;22.31;53.22;98647.06;5051489;27;45573;-62
2023/08/01 07:18:48;;;;;;;;;9.50;7.00;;;;;22.30;53.14;98665.00;5055429;27;45967;-63
2023/08/01 07:21:13;;;;;;;;;5.00;4.60;;;;;22.27;53.12;98668.00;5068455;28;45407;-63
2023/08/01 07:23:39;;;;;;;;;6.75;6.00;;;;;22.20;52.80;98662.38;5064580;28;45824;-62
2023/08/01 07:26:05;;;;;;;;;8.60;7.00;;;;;22.22;53.20;98657.69;5068338;27;45447;-62
2023/08/01 07:28:30;;;;;;;;;8.25;7.00;;;;;22.22;54.51;98649.66;5067659;28;45506;-62
2023/08/01 07:31:05;;;;;;;;;9.25;6.50;;;;;22.20;54.64;98638.19;5062491;27;45633;-62
2023/08/01 07:33:30;;;;;;;;;9.00;8.00;;;;;22.19;55.23;98644.56;5063857;28;45575;-63
2023/08/01 07:35:56;;;;;;;;;7.00;7.00;;;;;22.19;54.98;98638.34;5068822;28;45509;-63
2023/08/01 07:38:22;;;;;;;;;6.25;6.25;;;;;22.16;55.07;98649.38;5063753;28;45472;-63
2023/08/01 07:40:47;;;;;;;;;6.75;6.00;;;;;22.07;54.28;98659.16;5064081;27;45422;-64
2023/08/01 07:43:12;;;;;;;;;6.25;5.25;;;;;21.96;54.79;98659.28;5067800;28;45463;-63
2023/08/01 07:45:38;;;;;;;;;7.00;7.00;;;;;21.87;55.56;98660.16;5061658;27;45914;-63
2023/08/01 07:48:04;;;;;;;;;6.50;6.00;;;;;21.82;54.94;98668.63;5065402;28;45707;-63
2023/08/01 07:50:30;;;;;;;;;9.75;6.00;;;;;21.76;55.95;98660.31;5064340;28;45473;-63
2023/08/01 07:52:55;;;;;;;;;9.75;6.75;;;;;21.73;56.86;98661.44;5067401;28;45533;-63
2023/08/01 07:55:21;;;;;;;;;6.00;4.25;;;;;21.72;57.46;98649.00;5068521;28;45453;-63
2023/08/01 07:57:47;;;;;;;;;8.00;5.75;;;;;21.71;56.76;98650.00;5068953;28;45456;-63
2023/08/01 08:00:13;;;;;;;;;6.00;6.00;;;;;21.75;56.30;98645.19;5059893;28;45523;-63
2023/08/01 08:02:38;;;;;;;;;6.75;6.25;;;;;21.75;56.18;98650.56;5065597;28;46402;-63
2023/08/01 08:05:04;;;;;;;;;8.75;6.25;;;;;21.78;55.64;98636.88;5064822;28;45443;-63
2023/08/01 08:07:30;;;;;;;;;9.25;8.00;;;;;21.86;56.21;98640.50;5063695;28;45585;-63
2023/08/01 08:09:56;;;;;;;;;7.50;6.00;;;;;21.94;55.83;98637.97;5064977;28;45598;-63
2023/08/01 08:12:23;;;;;;;;;7.00;5.25;;;;;22.06;55.49;98640.50;5069794;27;46167;-63
2023/08/01 08:14:48;;;;;;;;;8.00;8.00;;;;;22.13;55.07;98634.38;5068193;28;45737;-63
2023/08/01 08:17:15;;;;;;;;;11.50;7.00;;;;;22.24;55.37;98638.75;5069918;28;45505;-63
2023/08/01 08:19:40;;;;;;;;;9.50;7.00;;;;;22.35;55.58;98643.09;5060969;28;45526;-63
2023/08/01 08:22:05;;;;;;;;;1.00;1.00;;;;;22.40;55.59;98647.03;5062696;28;46514;-63
2023/08/01 08:24:31;;;;;;;;;7.25;6.00;;;;;22.41;55.41;98639.81;5062818;28;45453;-63
2023/08/01 08:26:56;;;;;;;;;10.00;8.00;;;;;22.38;55.84;98632.91;5063967;28;45510;-63
2023/08/01 08:29:22;;;;;;;;;10.75;8.75;;;;;22.38;55.87;98632.06;5068889;28;45608;-63
2023/08/01 08:31:47;;;;;;;;;9.25;6.75;;;;;22.43;55.00;98625.25;5070253;28;46098;-63
2023/08/01 08:34:13;;;;;;;;;5.25;5.00;;;;;22.50;55.64;98637.09;5068663;27;45428;-64
2023/08/01 08:36:38;;;;;;;;;9.25;8.00;;;;;22.59;54.74;98643.41;5084951;27;45498;-62
2023/08/01 08:39:04;;;;;;;;;6.00;6.00;;;;;22.61;54.27;98650.34;5067060;28;45428;-63
2023/08/01 08:41:47;;;;;;;;;7.25;5.25;;;;;22.55;54.14;98650.94;5069255;28;46247;-62
2023/08/01 08:44:21;;;;;;;;;8.40;7.80;;;;;22.59;54.64;98656.84;5075522;27;45575;-63
2023/08/01 08:46:52;;;;;;;;;9.00;7.60;;;;;22.70;54.87;98653.13;5069623;27;45443;-63
2023/08/01 08:49:20;;;;;;;;;12.75;8.50;;;;;22.87;55.14;98646.97;5057231;27;45550;-63
2023/08/01 08:51:46;;;;;;;;;13.75;12.25;;;;;23.09;54.57;98638.50;5069070;28;46378;-63
2023/08/01 08:54:13;;;;;;;;;7.50;4.00;;;;;23.36;54.27;98629.50;5069477;28;45422;-63
2023/08/01 08:56:40;;;;;;;;;10.20;7.00;;;;;23.62;53.85;98646.59;5069413;28;45478;-63
2023/08/01 08:59:07;;;;;;;;;7.20;6.00;;;;;23.78;53.05;98647.72;5083854;27;45836;-63
2023/08/01 09:01:34;;;;;;;;;7.80;7.00;;;;;23.87;52.34;98663.78;5068893;28;45590;-63
2023/08/01 09:03:59;;;;;;;;;10.40;8.40;;;;;24.00;52.55;98658.81;5065776;27;45695;-63
2023/08/01 09:06:29;;;;;;;;;9.50;9.00;;;;;24.20;52.27;98658.59;5069126;27;45499;-64
2023/08/01 09:09:11;;;;;;;;;12.00;7.80;;;;;24.38;51.83;98661.28;5069107;27;45437;-63
2023/08/01 09:11:44;;;;;;;;;13.80;8.00;;;;;24.55;51.77;98680.06;5068354;28;46299;-63
2023/08/01 09:14:10;;;;;;;;;7.60;7.20;;;;;24.63;51.55;98673.88;5071848;28;45411;-63
2023/08/01 09:16:35;;;;;;;;;8.00;6.60;;;;;24.68;52.19;98674.22;5068425;28;45559;-63
2023/08/01 09:19:02;;;;;;;;;9.50;7.00;;;;;24.73;51.90;98680.00;5063607;28;45371;-63
2023/08/01 09:21:34;;;;;;;;;8.20;7.20;;;;;24.76;52.07;98676.97;5072510;27;45515;-63
2023/08/01 09:24:17;;;;;;;;;7.20;5.60;;;;;24.72;51.68;98674.75;5082767;27;45445;-63
2023/08/01 09:26:44;;;;;;;;;6.20;6.20;;;;;24.66;51.65;98670.84;5072359;28;45377;-63
2023/08/01 09:29:10;;;;;;;;;7.20;5.60;;;;;24.64;51.84;98678.25;5072120;27;45463;-63
2023/08/01 09:31:38;;;;;;;;;7.00;7.00;;;;;24.64;51.58;98686.34;5073053;27;45432;-63
2023/08/01 09:34:05;;;;;;;;;8.60;8.40;;;;;24.63;51.47;98693.56;5073523;28;45368;-62
2023/08/01 09:36:31;;;;;;;;;11.40;10.40;;;;;24.59;52.01;98689.53;5073322;27;45444;-63
2023/08/01 09:39:02;;;;;;;;;8.20;7.60;;;;;24.59;53.25;98696.78;5073937;27;45358;-63
2023/08/01 09:41:31;;;;;;;;;8.80;8.00;;;;;24.62;53.48;98704.53;5073820;28;46575;-63
2023/08/01 09:43:56;;;;;;;;;7.80;6.60;;;;;24.64;53.24;98710.59;5073587;28;45569;-63
2023/08/01 09:46:23;;;;;;;;;8.50;8.50;;;;;24.64;53.89;98708.75;5073652;28;45402;-63
2023/08/01 09:48:48;;;;;;;;;14.75;11.25;;;;;24.67;55.17;98708.44;5073583;28;45467;-62
2023/08/01 09:51:16;;;;;;;;;9.50;9.00;;;;;24.72;54.52;98701.72;5089392;27;47275;-63
2023/08/01 09:53:49;;;;;;;;;9.40;7.80;;;;;24.74;54.50;98705.94;5073729;28;45343;-62
2023/08/01 09:56:18;;;;;;;;;9.60;9.00;;;;;24.77;55.03;98708.31;5072371;28;45440;-63
2023/08/01 09:58:45;;;;;;;;;9.40;9.40;;;;;24.77;54.48;98697.53;5074007;28;45463;-63
2023/08/01 10:01:12;;;;;;;;;10.40;9.20;;;;;24.81;54.89;98695.34;5073551;27;46222;-63
2023/08/01 10:03:40;;;;;;;;;10.00;8.40;;;;;24.86;55.28;98704.66;5073885;27;45535;-63
2023/08/01 10:06:06;;;;;;;;;9.00;9.00;;;;;24.94;55.04;98699.34;5073791;27;45528;-63
2023/08/01 10:08:33;;;;;;;;;6.50;6.00;;;;;25.02;54.90;98691.25;5073072;28;45403;-63
2023/08/01 10:10:59;;;;;;;;;9.60;9.60;;;;;25.14;54.75;98683.69;5073688;27;46304;-63
2023/08/01 10:13:27;;;;;;;;;12.20;10.60;;;;;25.21;54.93;98687.44;5073719;27;45420;-63
2023/08/01 10:15:53;;;;;;;;;6.20;6.20;;;;;25.30;54.34;98682.91;5073824;27;45393;-63
2023/08/01 10:18:19;;;;;;;;;11.00;7.50;;;;;25.32;53.94;98683.56;5072326;28;45575;-62
2023/08/01 10:20:45;;;;;;;;;11.80;9.20;;;;;25.33;54.11;98675.31;5073682;27;45611;-62
2023/08/01 10:23:12;;;;;;;;;9.20;9.00;;;;;25.32;54.78;98665.53;5073432;28;45546;-63
2023/08/01 10:25:39;;;;;;;;;7.80;7.80;;;;;25.35;54.30;98667.91;5073641;27;45257;-63
2023/08/01 10:28:05;;;;;;;;;9.60;8.60;;;;;25.40;54.40;98667.41;5073718;27;45369;-63
2023/08/01 10:30:31;;;;;;;;;11.00;8.60;;;;;25.48;54.27;98663.84;5073145;28;45512;-63
2023/08/01 10:32:59;;;;;;;;;8.50;7.75;;;;;25.50;53.03;98659.97;5076772;27;45400;-63
2023/08/01 10:35:35;;;;;;;;;10.00;9.60;;;;;25.53;53.08;98666.91;5077096;28;45328;-62
2023/08/01 10:38:12;;;;;;;;;9.40;9.40;;;;;25.58;53.80;98669.97;5076703;28;45534;-63
2023/08/01 10:40:42;;;;;;;;;14.20;9.60;;;;;25.59;53.49;98663.56;5092400;27;48022;-63
2023/08/01 10:43:23;;;;;;;;;8.20;8.20;;;;;25.57;53.21;98663.72;5077372;28;45402;-63
2023/08/01 10:46:01;;;;;;;;;9.60;8.80;;;;;25.60;53.23;98673.34;5076584;27;45375;-63
2023/08/01 10:48:26;;;;;;;;;8.80;8.20;;;;;25.64;53.40;98653.09;5076480;28;45517;-63
2023/08/01 10:50:56;;;;;;;;;10.75;9.75;;;;;25.75;52.57;98644.69;5076568;28;46552;-62
2023/08/01 10:53:22;;;;;;;;;9.20;8.60;;;;;25.84;53.29;98642.81;5076408;28;45391;-62
2023/08/01 10:55:48;;;;;;;;;11.75;11.75;;;;;25.91;52.85;98655.47;5076787;28;45468;-62
2023/08/01 10:58:14;;;;;;;;;9.60;8.00;;;;;26.02;52.42;98649.72;5076684;28;45315;-63
2023/08/01 11:00:41;;;;;;;;;10.00;8.00;;;;;26.10;51.57;98651.56;5076390;28;47030;-62
2023/08/01 11:03:06;;;;;;;;;7.80;7.80;;;;;26.15;51.09;98651.03;5076619;28;45442;-62
2023/08/01 11:05:32;;;;;;;;;8.25;6.25;;;;;26.25;49.67;98638.19;5075727;27;45368;-63
2023/08/01 11:07:59;;;;;;;;;8.00;7.00;;;;;26.41;49.84;98641.75;5075611;27;46166;-63
2023/08/01 11:10:27;;;;;;;;;6.60;6.60;;;;;26.53;48.83;98631.38;5075850;28;45571;-62
2023/08/01 11:12:55;;;;;;;;;8.20;7.80;;;;;26.68;48.94;98626.91;5076054;28;45358;-62
2023/08/01 11:15:21;;;;;;;;;5.80;5.80;;;;;26.81;47.33;98620.97;5075751;27;45532;-62
2023/08/01 11:17:53;;;;;;;;;6.00;6.00;;;;;26.94;46.47;98607.75;5076295;28;45444;-62
2023/08/01 11:20:21;;;;;;;;;5.80;5.60;;;;;27.03;45.48;98613.94;5075911;28;46168;-62
2023/08/01 11:23:00;;;;;;;;;6.00;5.80;;;;;27.20;45.38;98611.97;5075863;27;45434;-62
2023/08/01 11:25:39;;;;;;;;;5.20;5.00;;;;;27.35;44.19;98604.75;5076293;28;45414;-62
2023/08/01 11:28:10;;;;;;;;;7.00;5.20;;;;;27.49;43.59;98595.81;5076108;27;45373;-62